createdAt,value
2023-05-04T00:00:35.518Z,0.00
2023-05-04T00:01:35.463Z,0.00
2023-05-04T00:02:35.519Z,0.00
2023-05-04T00:03:35.482Z,0.00
2023-05-04T00:04:35.355Z,0.00
2023-05-04T00:05:35.428Z,0.00
2023-05-04T00:06:35.280Z,0.00
2023-05-04T00:07:35.252Z,0.00
2023-05-04T00:08:35.223Z,0.00
2023-05-04T00:09:35.188Z,0.00
2023-05-04T00:10:35.205Z,0.00
2023-05-04T00:11:35.094Z,0.00
2023-05-04T00:12:35.070Z,0.00
2023-05-04T00:13:35.027Z,0.00
2023-05-04T00:14:35.008Z,0.00
2023-05-04T00:15:34.945Z,0.00
2023-05-04T00:16:34.976Z,0.00
2023-05-04T00:17:34.962Z,0.00
2023-05-04T00:18:34.843Z,0.00
2023-05-04T00:19:34.804Z,0.00
2023-05-04T00:20:34.768Z,0.00
2023-05-04T00:21:34.722Z,0.00
2023-05-04T00:22:34.763Z,0.00
2023-05-04T00:23:34.646Z,0.00
2023-05-04T00:24:34.624Z,0.00
2023-05-04T00:25:34.580Z,0.00
2023-05-04T00:26:34.589Z,0.00
2023-05-04T00:27:35.279Z,0.00
2023-05-04T00:28:34.569Z,0.00
2023-05-04T00:29:34.435Z,0.00
2023-05-04T00:30:34.421Z,0.00
2023-05-04T00:31:34.397Z,0.00
2023-05-04T00:32:39.827Z,0.00
2023-05-04T00:33:34.388Z,0.00
2023-05-04T00:34:34.326Z,0.00
2023-05-04T00:35:34.225Z,0.00
2023-05-04T00:36:34.193Z,0.00
2023-05-04T00:37:34.165Z,0.00
2023-05-04T00:38:34.108Z,0.00
2023-05-04T00:39:34.125Z,0.00
2023-05-04T00:40:34.030Z,0.00
2023-05-04T00:41:34.000Z,0.00
2023-05-04T00:42:33.974Z,0.00
2023-05-04T00:43:33.927Z,0.00
2023-05-04T00:44:33.890Z,0.00
2023-05-04T00:45:33.909Z,0.00
2023-05-04T00:46:33.869Z,0.00
2023-05-04T00:47:34.430Z,0.00
2023-05-04T00:48:33.747Z,0.00
2023-05-04T00:49:33.706Z,0.00
2023-05-04T00:50:33.671Z,0.00
2023-05-04T00:51:33.780Z,0.00
2023-05-04T00:52:33.662Z,0.00
2023-05-04T00:53:33.561Z,0.00
2023-05-04T00:54:33.535Z,0.00
2023-05-04T00:55:33.488Z,0.00
2023-05-04T00:56:33.454Z,0.00
2023-05-04T00:57:33.465Z,0.00
2023-05-04T00:58:33.449Z,0.00
2023-05-04T00:59:33.345Z,0.00
2023-05-04T01:00:33.303Z,0.00
2023-05-04T01:01:33.320Z,0.00
2023-05-04T01:02:33.262Z,0.00
2023-05-04T01:03:33.303Z,0.00
2023-05-04T01:04:33.178Z,0.00
2023-05-04T01:05:33.130Z,0.00
2023-05-04T01:06:33.085Z,0.00
2023-05-04T01:07:33.062Z,0.00
2023-05-04T01:08:33.127Z,0.00
2023-05-04T01:09:32.984Z,0.00
2023-05-04T01:10:32.945Z,0.00
2023-05-04T01:11:32.909Z,0.00
2023-05-04T01:12:32.896Z,0.00
2023-05-04T01:13:32.829Z,0.00
2023-05-04T01:14:32.869Z,0.00
2023-05-04T01:15:32.775Z,0.00
2023-05-04T01:16:32.787Z,0.00
2023-05-04T01:17:32.714Z,0.00
2023-05-04T01:18:32.706Z,0.00
2023-05-04T01:19:32.670Z,0.00
2023-05-04T01:20:32.583Z,0.00
2023-05-04T01:21:32.556Z,0.00
2023-05-04T01:22:32.521Z,0.00
2023-05-04T01:23:32.479Z,0.00
2023-05-04T01:24:32.974Z,0.00
2023-05-04T01:25:32.396Z,0.00
2023-05-04T01:26:32.357Z,0.00
2023-05-04T01:27:32.325Z,0.00
2023-05-04T01:28:32.916Z,0.00
2023-05-04T01:29:32.313Z,0.00
2023-05-04T01:30:32.224Z,0.00
2023-05-04T01:31:32.228Z,0.00
2023-05-04T01:32:32.212Z,0.00
2023-05-04T01:33:32.113Z,0.00
2023-05-04T01:34:32.144Z,0.00
2023-05-04T01:35:32.036Z,0.00
2023-05-04T01:36:32.061Z,0.00
2023-05-04T01:37:34.798Z,0.00
2023-05-04T01:38:31.927Z,0.00
2023-05-04T01:39:32.020Z,0.00
2023-05-04T01:40:31.861Z,0.00
2023-05-04T01:41:31.900Z,0.00
2023-05-04T01:42:31.772Z,0.00
2023-05-04T01:43:31.755Z,0.00
2023-05-04T01:44:31.711Z,0.00
2023-05-04T01:45:31.707Z,0.00
2023-05-04T01:46:31.753Z,0.00
2023-05-04T01:47:31.614Z,0.00
2023-05-04T01:48:31.559Z,0.00
2023-05-04T01:49:31.519Z,0.00
2023-05-04T01:50:31.534Z,0.00
2023-05-04T01:51:31.441Z,0.00
2023-05-04T01:52:31.399Z,0.00
2023-05-04T01:53:31.406Z,0.00
2023-05-04T01:54:31.334Z,0.00
2023-05-04T01:55:31.298Z,0.00
2023-05-04T01:56:31.328Z,0.00
2023-05-04T01:57:31.235Z,0.00
2023-05-04T01:58:31.219Z,0.00
2023-05-04T01:59:31.154Z,0.00
2023-05-04T02:00:31.110Z,0.00
2023-05-04T02:01:31.124Z,0.00
2023-05-04T02:02:31.157Z,0.00
2023-05-04T02:03:31.185Z,0.00
2023-05-04T02:04:30.968Z,0.00
2023-05-04T02:05:30.933Z,0.00
2023-05-04T02:06:30.899Z,0.00
2023-05-04T02:07:30.874Z,0.00
2023-05-04T02:08:30.890Z,0.00
2023-05-04T02:09:30.815Z,0.00
2023-05-04T02:10:30.751Z,0.00
2023-05-04T02:11:30.725Z,0.00
2023-05-04T02:12:30.728Z,0.00
2023-05-04T02:13:30.657Z,0.00
2023-05-04T02:14:30.653Z,0.00
2023-05-04T02:15:30.571Z,0.00
2023-05-04T02:16:30.558Z,0.00
2023-05-04T02:17:30.573Z,0.00
2023-05-04T02:18:30.451Z,0.00
2023-05-04T02:19:30.420Z,0.00
2023-05-04T02:20:30.459Z,0.00
2023-05-04T02:21:30.366Z,0.00
2023-05-04T02:22:30.310Z,0.00
2023-05-04T02:23:30.275Z,0.00
2023-05-04T02:24:30.240Z,0.00
2023-05-04T02:25:30.240Z,0.00
2023-05-04T02:26:30.153Z,0.00
2023-05-04T02:27:30.118Z,0.00
2023-05-04T02:28:30.094Z,0.00
2023-05-04T02:29:30.060Z,0.00
2023-05-04T02:30:30.067Z,0.00
2023-05-04T02:31:30.062Z,0.00
2023-05-04T02:32:29.955Z,0.00
2023-05-04T02:33:29.907Z,0.00
2023-05-04T02:34:29.883Z,0.00
2023-05-04T02:35:29.892Z,0.00
2023-05-04T02:36:29.796Z,0.00
2023-05-04T02:37:29.759Z,0.00
2023-05-04T02:38:29.715Z,0.00
2023-05-04T02:39:29.702Z,0.00
2023-05-04T02:40:29.654Z,0.00
2023-05-04T02:41:29.827Z,0.00
2023-05-04T02:42:29.577Z,0.00
2023-05-04T02:43:29.533Z,0.00
2023-05-04T02:44:29.498Z,0.00
2023-05-04T02:45:29.496Z,0.00
2023-05-04T02:46:29.491Z,0.00
2023-05-04T02:47:29.422Z,0.00
2023-05-04T02:48:29.348Z,0.00
2023-05-04T02:49:29.345Z,4.00
2023-05-04T02:50:29.294Z,4.00
2023-05-04T02:51:29.244Z,0.00
2023-05-04T02:52:29.269Z,0.00
2023-05-04T02:53:29.193Z,4.00
2023-05-04T02:54:29.126Z,4.00
2023-05-04T02:55:29.092Z,4.00
2023-05-04T02:56:29.059Z,4.00
2023-05-04T02:57:29.021Z,4.00
2023-05-04T02:58:29.037Z,8.00
2023-05-04T02:59:29.001Z,8.00
2023-05-04T03:00:28.917Z,8.00
2023-05-04T03:01:28.913Z,8.00
2023-05-04T03:02:28.853Z,8.00
2023-05-04T03:03:32.310Z,12.00
2023-05-04T03:04:28.896Z,12.00
2023-05-04T03:05:28.803Z,12.00
2023-05-04T03:06:28.687Z,16.00
2023-05-04T03:07:28.664Z,20.00
2023-05-04T03:08:28.615Z,20.00
2023-05-04T03:09:28.626Z,24.00
2023-05-04T03:10:28.541Z,28.00
2023-05-04T03:11:28.558Z,32.00
2023-05-04T03:12:28.544Z,36.00
2023-05-04T03:13:28.458Z,44.00
2023-05-04T03:14:28.395Z,48.00
2023-05-04T03:15:28.348Z,56.00
2023-05-04T03:16:28.450Z,60.00
2023-05-04T03:17:28.353Z,72.00
2023-05-04T03:18:42.926Z,80.00
2023-05-04T03:19:28.208Z,88.00
2023-05-04T03:20:28.214Z,104.00
2023-05-04T03:21:28.195Z,116.00
2023-05-04T03:22:28.120Z,124.00
2023-05-04T03:23:28.087Z,140.00
2023-05-04T03:24:28.057Z,156.00
2023-05-04T03:25:27.991Z,168.00
2023-05-04T03:26:28.035Z,188.00
2023-05-04T03:27:27.921Z,208.00
2023-05-04T03:28:27.872Z,224.00
2023-05-04T03:29:27.840Z,248.00
2023-05-04T03:30:27.805Z,268.00
2023-05-04T03:31:27.790Z,292.00
2023-05-04T03:32:27.792Z,316.00
2023-05-04T03:33:27.728Z,340.00
2023-05-04T03:34:27.651Z,368.00
2023-05-04T03:35:27.609Z,396.00
2023-05-04T03:36:27.574Z,428.00
2023-05-04T03:37:27.537Z,456.00
2023-05-04T03:38:27.614Z,492.00
2023-05-04T03:39:27.476Z,524.00
2023-05-04T03:40:27.425Z,556.00
2023-05-04T03:41:27.390Z,596.00
2023-05-04T03:42:27.347Z,636.00
2023-05-04T03:43:27.327Z,672.00
2023-05-04T03:44:27.333Z,712.00
2023-05-04T03:45:27.246Z,756.00
2023-05-04T03:46:27.213Z,796.00
2023-05-04T03:47:27.185Z,840.00
2023-05-04T03:48:27.137Z,884.00
2023-05-04T03:49:27.114Z,932.00
2023-05-04T03:50:27.117Z,980.00
2023-05-04T03:51:27.017Z,1028.00
2023-05-04T03:52:26.997Z,1088.00
2023-05-04T03:53:26.967Z,1168.00
2023-05-04T03:54:26.910Z,1416.00
2023-05-04T03:55:26.879Z,1796.00
2023-05-04T03:56:26.884Z,2192.00
2023-05-04T03:57:26.796Z,2504.00
2023-05-04T03:58:26.765Z,2648.00
2023-05-04T03:59:26.731Z,2772.00
2023-05-04T04:00:26.696Z,2844.00
2023-05-04T04:01:26.695Z,2828.00
2023-05-04T04:02:26.718Z,3148.00
2023-05-04T04:03:26.760Z,3768.00
2023-05-04T04:04:26.554Z,3988.00
2023-05-04T04:05:26.510Z,4148.00
2023-05-04T04:06:26.465Z,4404.00
2023-05-04T04:07:26.494Z,4364.00
2023-05-04T04:08:26.404Z,4132.00
2023-05-04T04:09:26.962Z,4188.00
2023-05-04T04:10:26.326Z,4612.00
2023-05-04T04:11:26.295Z,5052.00
2023-05-04T04:12:26.243Z,5672.00
2023-05-04T04:13:26.261Z,6452.00
2023-05-04T04:14:26.184Z,6524.00
2023-05-04T04:15:26.137Z,6300.00
2023-05-04T04:16:26.155Z,5280.00
2023-05-04T04:17:26.086Z,4296.00
2023-05-04T04:18:26.032Z,4960.00
2023-05-04T04:19:26.087Z,4564.00
2023-05-04T04:20:25.983Z,4288.00
2023-05-04T04:21:25.929Z,4364.00
2023-05-04T04:22:25.894Z,3944.00
2023-05-04T04:23:25.854Z,4000.00
2023-05-04T04:24:25.884Z,3880.00
2023-05-04T04:25:25.851Z,3764.00
2023-05-04T04:26:25.753Z,3808.00
2023-05-04T04:27:25.740Z,4136.00
2023-05-04T04:28:25.688Z,4244.00
2023-05-04T04:29:25.644Z,4356.00
2023-05-04T04:30:25.625Z,4260.00
2023-05-04T04:31:25.712Z,4244.00
2023-05-04T04:32:25.599Z,4336.00
2023-05-04T04:33:25.511Z,4824.00
2023-05-04T04:34:25.467Z,5936.00
2023-05-04T04:35:25.460Z,5960.00
2023-05-04T04:36:25.408Z,6828.00
2023-05-04T04:37:25.434Z,7656.00
2023-05-04T04:38:25.337Z,7800.00
2023-05-04T04:39:25.318Z,7672.00
2023-05-04T04:40:25.275Z,8156.00
2023-05-04T04:41:25.234Z,8736.00
2023-05-04T04:42:25.195Z,8156.00
2023-05-04T04:43:25.224Z,7232.00
2023-05-04T04:44:25.119Z,6788.00
2023-05-04T04:45:25.089Z,6252.00
2023-05-04T04:46:25.072Z,6228.00
2023-05-04T04:47:25.057Z,7228.00
2023-05-04T04:48:24.995Z,7564.00
2023-05-04T04:49:25.012Z,6912.00
2023-05-04T04:50:24.920Z,6132.00
2023-05-04T04:51:24.961Z,6860.00
2023-05-04T04:52:24.855Z,9408.00
2023-05-04T04:53:24.831Z,11000.00
2023-05-04T04:54:24.789Z,12180.00
2023-05-04T04:55:24.807Z,11332.00
2023-05-04T04:56:24.722Z,9348.00
2023-05-04T04:57:24.690Z,9204.00
2023-05-04T04:58:24.662Z,9940.00
2023-05-04T04:59:24.618Z,8804.00
2023-05-04T05:00:24.573Z,8928.00
2023-05-04T05:01:24.678Z,6580.00
2023-05-04T05:02:24.641Z,10532.00
2023-05-04T05:03:24.479Z,12456.00
2023-05-04T05:04:24.613Z,8336.00
2023-05-04T05:05:24.414Z,4092.00
2023-05-04T05:06:24.377Z,3824.00
2023-05-04T05:07:24.343Z,3828.00
2023-05-04T05:08:24.949Z,3840.00
2023-05-04T05:09:24.339Z,3896.00
2023-05-04T05:10:24.243Z,4012.00
2023-05-04T05:11:24.211Z,4164.00
2023-05-04T05:12:24.165Z,4392.00
2023-05-04T05:13:24.153Z,4540.00
2023-05-04T05:14:24.163Z,5052.00
2023-05-04T05:15:24.078Z,7780.00
2023-05-04T05:16:24.071Z,9096.00
2023-05-04T05:17:24.045Z,6512.00
2023-05-04T05:18:23.978Z,4244.00
2023-05-04T05:19:23.985Z,4112.00
2023-05-04T05:20:23.899Z,4116.00
2023-05-04T05:21:23.870Z,4148.00
2023-05-04T05:22:23.835Z,4196.00
2023-05-04T05:23:23.801Z,4232.00
2023-05-04T05:24:23.886Z,4280.00
2023-05-04T05:25:23.741Z,4312.00
2023-05-04T05:26:23.704Z,4512.00
2023-05-04T05:27:23.670Z,5004.00
2023-05-04T05:28:23.633Z,4904.00
2023-05-04T05:29:23.650Z,4588.00
2023-05-04T05:30:23.572Z,4604.00
2023-05-04T05:31:23.555Z,4256.00
2023-05-04T05:32:23.499Z,4140.00
2023-05-04T05:33:24.339Z,4316.00
2023-05-04T05:34:23.422Z,4612.00
2023-05-04T05:35:24.339Z,4556.00
2023-05-04T05:36:23.359Z,4376.00
2023-05-04T05:37:23.333Z,4240.00
2023-05-04T05:38:23.295Z,4200.00
2023-05-04T05:39:23.262Z,4200.00
2023-05-04T05:40:23.223Z,4164.00
2023-05-04T05:41:23.278Z,4144.00
2023-05-04T05:42:23.203Z,4136.00
2023-05-04T05:43:23.144Z,4128.00
2023-05-04T05:44:23.103Z,4124.00
2023-05-04T05:45:23.054Z,4120.00
2023-05-04T05:46:23.129Z,4112.00
2023-05-04T05:47:23.027Z,4100.00
2023-05-04T05:48:22.951Z,4080.00
2023-05-04T05:49:22.925Z,4092.00
2023-05-04T05:50:22.882Z,4116.00
2023-05-04T05:51:22.842Z,4148.00
2023-05-04T05:52:22.956Z,4156.00
2023-05-04T05:53:22.788Z,4160.00
2023-05-04T05:54:22.754Z,4160.00
2023-05-04T05:55:22.724Z,4164.00
2023-05-04T05:56:22.691Z,4176.00
2023-05-04T05:57:22.647Z,4180.00
2023-05-04T05:58:22.672Z,4188.00
2023-05-04T05:59:22.570Z,4208.00
2023-05-04T06:00:22.547Z,4232.00
2023-05-04T06:01:22.643Z,4256.00
2023-05-04T06:02:22.622Z,4280.00
2023-05-04T06:03:22.765Z,4308.00
2023-05-04T06:04:22.526Z,4352.00
2023-05-04T06:05:22.439Z,4388.00
2023-05-04T06:06:22.343Z,4408.00
2023-05-04T06:07:22.307Z,4436.00
2023-05-04T06:08:22.270Z,4476.00
2023-05-04T06:09:22.232Z,4512.00
2023-05-04T06:10:22.261Z,4508.00
2023-05-04T06:11:22.167Z,4520.00
2023-05-04T06:12:22.182Z,4516.00
2023-05-04T06:13:22.098Z,4396.00
2023-05-04T06:14:22.076Z,4344.00
2023-05-04T06:15:22.027Z,4340.00
2023-05-04T06:16:22.098Z,4312.00
2023-05-04T06:17:21.959Z,4256.00
2023-05-04T06:18:21.923Z,4164.00
2023-05-04T06:19:21.894Z,4228.00
2023-05-04T06:20:21.854Z,4344.00
2023-05-04T06:21:21.865Z,4352.00
2023-05-04T06:22:21.790Z,4368.00
2023-05-04T06:23:21.760Z,4368.00
2023-05-04T06:24:21.727Z,4380.00
2023-05-04T06:25:21.692Z,4392.00
2023-05-04T06:26:21.653Z,4412.00
2023-05-04T06:27:22.922Z,4448.00
2023-05-04T06:28:21.589Z,4476.00
2023-05-04T06:29:21.556Z,4496.00
2023-05-04T06:30:21.513Z,4448.00
2023-05-04T06:31:21.514Z,4572.00
2023-05-04T06:32:21.514Z,4604.00
2023-05-04T06:33:21.420Z,4640.00
2023-05-04T06:34:21.385Z,4676.00
2023-05-04T06:35:21.357Z,4700.00
2023-05-04T06:36:21.315Z,4676.00
2023-05-04T06:37:21.285Z,4620.00
2023-05-04T06:38:21.298Z,4548.00
2023-05-04T06:39:21.243Z,4512.00
2023-05-04T06:40:21.183Z,4436.00
2023-05-04T06:41:21.153Z,4388.00
2023-05-04T06:42:25.893Z,4548.00
2023-05-04T06:43:21.147Z,4564.00
2023-05-04T06:44:21.042Z,4528.00
2023-05-04T06:45:21.028Z,4572.00
2023-05-04T06:46:21.319Z,4676.00
2023-05-04T06:47:20.956Z,4684.00
2023-05-04T06:48:20.930Z,4676.00
2023-05-04T06:49:20.987Z,4648.00
2023-05-04T06:50:20.852Z,4648.00
2023-05-04T06:51:20.826Z,4640.00
2023-05-04T06:52:20.780Z,4624.00
2023-05-04T06:53:20.754Z,4572.00
2023-05-04T06:54:20.774Z,4576.00
2023-05-04T06:55:20.679Z,4488.00
2023-05-04T06:56:20.640Z,4528.00
2023-05-04T06:57:20.618Z,4536.00
2023-05-04T06:58:20.581Z,4524.00
2023-05-04T06:59:20.617Z,4552.00
2023-05-04T07:00:20.577Z,4512.00
2023-05-04T07:01:20.529Z,4468.00
2023-05-04T07:02:20.450Z,4420.00
2023-05-04T07:03:20.503Z,4296.00
2023-05-04T07:04:20.415Z,4396.00
2023-05-04T07:05:20.350Z,4424.00
2023-05-04T07:06:20.359Z,4472.00
2023-05-04T07:07:20.293Z,4492.00
2023-05-04T07:08:20.243Z,4512.00
2023-05-04T07:09:20.259Z,4528.00
2023-05-04T07:10:20.173Z,4548.00
2023-05-04T07:11:20.138Z,4572.00
2023-05-04T07:12:20.185Z,4552.00
2023-05-04T07:13:20.131Z,4580.00
2023-05-04T07:14:20.064Z,4620.00
2023-05-04T07:15:20.035Z,4644.00
2023-05-04T07:16:20.021Z,4676.00
2023-05-04T07:17:19.947Z,4784.00
2023-05-04T07:18:19.988Z,4844.00
2023-05-04T07:19:19.885Z,4916.00
2023-05-04T07:20:19.851Z,4980.00
2023-05-04T07:21:27.551Z,5060.00
2023-05-04T07:22:19.790Z,5080.00
2023-05-04T07:23:19.750Z,4940.00
2023-05-04T07:24:19.771Z,4808.00
2023-05-04T07:25:19.686Z,4792.00
2023-05-04T07:26:19.650Z,4676.00
2023-05-04T07:27:19.633Z,4516.00
2023-05-04T07:28:19.588Z,4396.00
2023-05-04T07:29:19.553Z,4556.00
2023-05-04T07:30:19.582Z,4672.00
2023-05-04T07:31:19.576Z,4644.00
2023-05-04T07:32:19.536Z,4628.00
2023-05-04T07:33:19.493Z,4680.00
2023-05-04T07:34:20.147Z,4708.00
2023-05-04T07:35:19.367Z,4824.00
2023-05-04T07:36:19.352Z,4908.00
2023-05-04T07:37:19.361Z,4972.00
2023-05-04T07:38:19.306Z,4992.00
2023-05-04T07:39:19.234Z,4992.00
2023-05-04T07:40:19.192Z,4972.00
2023-05-04T07:41:19.187Z,4752.00
2023-05-04T07:42:19.197Z,4628.00
2023-05-04T07:43:19.133Z,4680.00
2023-05-04T07:44:19.071Z,4780.00
2023-05-04T07:45:19.033Z,4764.00
2023-05-04T07:46:19.020Z,4944.00
2023-05-04T07:47:19.008Z,5120.00
2023-05-04T07:48:19.042Z,5180.00
2023-05-04T07:49:18.912Z,5216.00
2023-05-04T07:50:18.879Z,5212.00
2023-05-04T07:51:18.851Z,5168.00
2023-05-04T07:52:18.820Z,5092.00
2023-05-04T07:53:18.788Z,4936.00
2023-05-04T07:54:19.914Z,5016.00
2023-05-04T07:55:18.726Z,5092.00
2023-05-04T07:56:18.713Z,5224.00
2023-05-04T07:57:18.661Z,5272.00
2023-05-04T07:58:18.632Z,5304.00
2023-05-04T07:59:18.603Z,5264.00
2023-05-04T08:00:18.625Z,5120.00
2023-05-04T08:01:18.529Z,5208.00
2023-05-04T08:02:18.560Z,5288.00
2023-05-04T08:03:18.528Z,5256.00
2023-05-04T08:04:18.438Z,5136.00
2023-05-04T08:05:18.408Z,5384.00
2023-05-04T08:06:18.424Z,5444.00
2023-05-04T08:07:18.340Z,5492.00
2023-05-04T08:08:18.306Z,5564.00
2023-05-04T08:09:18.293Z,5600.00
2023-05-04T08:10:18.260Z,5644.00
2023-05-04T08:11:20.948Z,5648.00
2023-05-04T08:12:18.233Z,5600.00
2023-05-04T08:13:18.180Z,5560.00
2023-05-04T08:14:18.125Z,5576.00
2023-05-04T08:15:18.090Z,5496.00
2023-05-04T08:16:18.991Z,5412.00
2023-05-04T08:17:18.024Z,5324.00
2023-05-04T08:18:18.049Z,5304.00
2023-05-04T08:19:17.965Z,5296.00
2023-05-04T08:20:17.934Z,5296.00
2023-05-04T08:21:17.903Z,5388.00
2023-05-04T08:22:17.872Z,5436.00
2023-05-04T08:23:17.862Z,5496.00
2023-05-04T08:24:18.335Z,5540.00
2023-05-04T08:25:18.079Z,5560.00
2023-05-04T08:26:18.126Z,5588.00
2023-05-04T08:27:17.720Z,5628.00
2023-05-04T08:28:17.691Z,5664.00
2023-05-04T08:29:17.661Z,5688.00
2023-05-04T08:30:17.684Z,5656.00
2023-05-04T08:31:17.619Z,5656.00
2023-05-04T08:32:17.566Z,5608.00
2023-05-04T08:33:17.583Z,5564.00
2023-05-04T08:34:17.530Z,5552.00
2023-05-04T08:35:17.530Z,5632.00
2023-05-04T08:36:17.503Z,5812.00
2023-05-04T08:37:17.422Z,6000.00
2023-05-04T08:38:17.397Z,6052.00
2023-05-04T08:39:17.356Z,6224.00
2023-05-04T08:40:17.325Z,6424.00
2023-05-04T08:41:17.288Z,6736.00
2023-05-04T08:42:17.303Z,6904.00
2023-05-04T08:43:17.254Z,7016.00
2023-05-04T08:44:17.217Z,7120.00
2023-05-04T08:45:17.220Z,7228.00
2023-05-04T08:46:17.254Z,7272.00
2023-05-04T08:47:17.133Z,7364.00
2023-05-04T08:48:17.134Z,7408.00
2023-05-04T08:49:17.059Z,7580.00
2023-05-04T08:50:17.024Z,7780.00
2023-05-04T08:51:16.988Z,7940.00
2023-05-04T08:52:16.962Z,8088.00
2023-05-04T08:53:16.936Z,8240.00
2023-05-04T08:54:16.958Z,8312.00
2023-05-04T08:55:16.870Z,8396.00
2023-05-04T08:56:16.845Z,8448.00
2023-05-04T08:57:16.804Z,8428.00
2023-05-04T08:58:16.794Z,8372.00
2023-05-04T08:59:16.888Z,8312.00
2023-05-04T09:00:16.782Z,8156.00
2023-05-04T09:01:16.825Z,7968.00
2023-05-04T09:02:16.661Z,7956.00
2023-05-04T09:03:16.712Z,7896.00
2023-05-04T09:04:16.616Z,7844.00
2023-05-04T09:05:16.622Z,7740.00
2023-05-04T09:06:16.544Z,7900.00
2023-05-04T09:07:16.953Z,7892.00
2023-05-04T09:08:16.486Z,7812.00
2023-05-04T09:09:16.454Z,7860.00
2023-05-04T09:10:16.489Z,8032.00
2023-05-04T09:11:16.395Z,8040.00
2023-05-04T09:12:16.358Z,8020.00
2023-05-04T09:13:16.372Z,7960.00
2023-05-04T09:14:16.295Z,7896.00
2023-05-04T09:15:16.276Z,7856.00
2023-05-04T09:16:16.431Z,7848.00
2023-05-04T09:17:16.220Z,7900.00
2023-05-04T09:18:16.253Z,7976.00
2023-05-04T09:19:16.158Z,8020.00
2023-05-04T09:20:16.128Z,8052.00
2023-05-04T09:21:16.097Z,8052.00
2023-05-04T09:22:16.904Z,8016.00
2023-05-04T09:23:16.077Z,7988.00
2023-05-04T09:24:16.024Z,7936.00
2023-05-04T09:25:15.984Z,7924.00
2023-05-04T09:26:16.007Z,7932.00
2023-05-04T09:27:15.932Z,7904.00
2023-05-04T09:28:15.901Z,7880.00
2023-05-04T09:29:15.882Z,7876.00
2023-05-04T09:30:16.192Z,7868.00
2023-05-04T09:31:15.876Z,7912.00
2023-05-04T09:32:15.787Z,7940.00
2023-05-04T09:33:15.821Z,7936.00
2023-05-04T09:34:15.720Z,7988.00
2023-05-04T09:35:29.338Z,8052.00
2023-05-04T09:36:15.726Z,8160.00
2023-05-04T09:37:15.635Z,8272.00
2023-05-04T09:38:15.598Z,8368.00
2023-05-04T09:39:15.608Z,8444.00
2023-05-04T09:40:15.561Z,8524.00
2023-05-04T09:41:15.594Z,8612.00
2023-05-04T09:42:15.516Z,8648.00
2023-05-04T09:43:15.487Z,8768.00
2023-05-04T09:44:15.464Z,8860.00
2023-05-04T09:45:15.479Z,8988.00
2023-05-04T09:46:15.916Z,9104.00
2023-05-04T09:47:15.417Z,9152.00
2023-05-04T09:48:15.355Z,9252.00
2023-05-04T09:49:15.305Z,9364.00
2023-05-04T09:50:16.853Z,9412.00
2023-05-04T09:51:15.270Z,9396.00
2023-05-04T09:52:15.261Z,9316.00
2023-05-04T09:53:15.193Z,9436.00
2023-05-04T09:54:15.146Z,9488.00
2023-05-04T09:55:15.146Z,9544.00
2023-05-04T09:56:15.912Z,9576.00
2023-05-04T09:57:15.128Z,9600.00
2023-05-04T09:58:15.090Z,9660.00
2023-05-04T09:59:15.039Z,9748.00
2023-05-04T10:00:15.031Z,9836.00
2023-05-04T10:01:14.996Z,9932.00
2023-05-04T10:02:22.671Z,10028.00
2023-05-04T10:03:14.908Z,10104.00
2023-05-04T10:04:14.877Z,10260.00
2023-05-04T10:05:14.912Z,10360.00
2023-05-04T10:06:14.826Z,10396.00
2023-05-04T10:07:14.802Z,10436.00
2023-05-04T10:08:17.910Z,10524.00
2023-05-04T10:09:14.734Z,10684.00
2023-05-04T10:10:14.695Z,10848.00
2023-05-04T10:11:14.688Z,10960.00
2023-05-04T10:12:14.686Z,11100.00
2023-05-04T10:13:14.698Z,11220.00
2023-05-04T10:14:14.647Z,11308.00
2023-05-04T10:15:14.578Z,11412.00
2023-05-04T10:16:14.590Z,11480.00
2023-05-04T10:17:14.495Z,11556.00
2023-05-04T10:18:14.477Z,11652.00
2023-05-04T10:19:14.509Z,11724.00
2023-05-04T10:20:14.414Z,11820.00
2023-05-04T10:21:14.390Z,11896.00
2023-05-04T10:22:14.367Z,11956.00
2023-05-04T10:23:14.341Z,11976.00
2023-05-04T10:24:14.306Z,12000.00
2023-05-04T10:25:14.325Z,11940.00
2023-05-04T10:26:14.257Z,12012.00
2023-05-04T10:27:14.381Z,12036.00
2023-05-04T10:28:14.242Z,12000.00
2023-05-04T10:29:14.178Z,11892.00
2023-05-04T10:30:14.133Z,11760.00
2023-05-04T10:31:20.947Z,11640.00
2023-05-04T10:32:14.085Z,11544.00
2023-05-04T10:33:14.079Z,11492.00
2023-05-04T10:34:14.114Z,11436.00
2023-05-04T10:35:14.010Z,11420.00
2023-05-04T10:36:14.008Z,11420.00
2023-05-04T10:37:14.123Z,11384.00
2023-05-04T10:38:13.932Z,11312.00
2023-05-04T10:39:13.901Z,11172.00
2023-05-04T10:40:13.882Z,11012.00
2023-05-04T10:41:13.847Z,10784.00
2023-05-04T10:42:13.818Z,10496.00
2023-05-04T10:43:14.415Z,10300.00
2023-05-04T10:44:13.786Z,10136.00
2023-05-04T10:45:13.775Z,10008.00
2023-05-04T10:46:13.793Z,9836.00
2023-05-04T10:47:13.698Z,9728.00
2023-05-04T10:48:13.816Z,9676.00
2023-05-04T10:49:13.698Z,9656.00
2023-05-04T10:50:13.605Z,9568.00
2023-05-04T10:51:13.594Z,9544.00
2023-05-04T10:52:13.570Z,9436.00
2023-05-04T10:53:13.527Z,9312.00
2023-05-04T10:54:13.488Z,9160.00
2023-05-04T10:55:13.529Z,9176.00
2023-05-04T10:56:13.480Z,9236.00
2023-05-04T10:57:13.419Z,9256.00
2023-05-04T10:58:13.387Z,9236.00
2023-05-04T10:59:13.376Z,9188.00
2023-05-04T11:00:13.329Z,9156.00
2023-05-04T11:01:13.382Z,9136.00
2023-05-04T11:02:13.376Z,9164.00
2023-05-04T11:03:13.329Z,9184.00
2023-05-04T11:04:13.219Z,9224.00
2023-05-04T11:05:13.189Z,9280.00
2023-05-04T11:06:13.191Z,9332.00
2023-05-04T11:07:13.191Z,9440.00
2023-05-04T11:08:13.123Z,9568.00
2023-05-04T11:09:13.189Z,9640.00
2023-05-04T11:10:13.145Z,9784.00
2023-05-04T11:11:13.031Z,9912.00
2023-05-04T11:12:13.102Z,10028.00
2023-05-04T11:13:12.991Z,10172.00
2023-05-04T11:14:12.949Z,10252.00
2023-05-04T11:15:12.963Z,10316.00
2023-05-04T11:16:12.956Z,10404.00
2023-05-04T11:17:27.588Z,10512.00
2023-05-04T11:18:13.124Z,10636.00
2023-05-04T11:19:12.867Z,10768.00
2023-05-04T11:20:12.883Z,10916.00
2023-05-04T11:21:12.789Z,11044.00
2023-05-04T11:22:12.735Z,11128.00
2023-05-04T11:23:12.713Z,11212.00
2023-05-04T11:24:12.731Z,11320.00
2023-05-04T11:25:12.653Z,11436.00
2023-05-04T11:26:12.634Z,11532.00
2023-05-04T11:27:12.605Z,11624.00
2023-05-04T11:28:14.669Z,11732.00
2023-05-04T11:29:12.547Z,11852.00
2023-05-04T11:30:12.668Z,12020.00
2023-05-04T11:31:12.540Z,12140.00
2023-05-04T11:32:12.462Z,12324.00
2023-05-04T11:33:12.517Z,12496.00
2023-05-04T11:34:12.410Z,12600.00
2023-05-04T11:35:12.397Z,12664.00
2023-05-04T11:36:12.432Z,12696.00
2023-05-04T11:37:12.339Z,12692.00
2023-05-04T11:38:12.315Z,12640.00
2023-05-04T11:39:12.266Z,12580.00
2023-05-04T11:40:12.279Z,12516.00
2023-05-04T11:41:12.259Z,12440.00
2023-05-04T11:42:12.264Z,12352.00
2023-05-04T11:43:12.178Z,12268.00
2023-05-04T11:44:12.196Z,12192.00
2023-05-04T11:45:12.136Z,12100.00
2023-05-04T11:46:12.137Z,12024.00
2023-05-04T11:47:12.108Z,11980.00
2023-05-04T11:48:12.160Z,11948.00
2023-05-04T11:49:12.020Z,11876.00
2023-05-04T11:50:12.016Z,11764.00
2023-05-04T11:51:11.976Z,11684.00
2023-05-04T11:52:11.936Z,11628.00
2023-05-04T11:53:11.907Z,11592.00
2023-05-04T11:54:11.960Z,11560.00
2023-05-04T11:55:11.878Z,11516.00
2023-05-04T11:56:11.849Z,11604.00
2023-05-04T11:57:11.822Z,11652.00
2023-05-04T11:58:11.834Z,11680.00
2023-05-04T11:59:11.768Z,11720.00
2023-05-04T12:00:11.796Z,11744.00
2023-05-04T12:01:11.713Z,11760.00
2023-05-04T12:02:11.719Z,11764.00
2023-05-04T12:03:11.696Z,11780.00
2023-05-04T12:04:11.771Z,11796.00
2023-05-04T12:05:11.618Z,11820.00
2023-05-04T12:06:11.644Z,11824.00
2023-05-04T12:07:11.570Z,11812.00
2023-05-04T12:08:11.587Z,11816.00
2023-05-04T12:09:11.504Z,11796.00
2023-05-04T12:10:11.475Z,11808.00
2023-05-04T12:11:11.460Z,11820.00
2023-05-04T12:12:11.495Z,11864.00
2023-05-04T12:13:11.485Z,11924.00
2023-05-04T12:14:11.380Z,11988.00
2023-05-04T12:15:11.399Z,12024.00
2023-05-04T12:16:11.364Z,11960.00
2023-05-04T12:17:11.306Z,11948.00
2023-05-04T12:18:11.370Z,11844.00
2023-05-04T12:19:11.574Z,11712.00
2023-05-04T12:20:11.332Z,11536.00